createdAt,value
2019-04-01T00:02:11.633Z,7.20
2019-04-01T00:04:42.160Z,7.40
2019-04-01T00:07:12.733Z,6.57
2019-04-01T00:09:43.302Z,7.40
2019-04-01T00:12:13.929Z,6.77
2019-04-01T00:14:44.713Z,7.40
2019-04-01T00:17:15.179Z,8.57
2019-04-01T00:19:45.959Z,6.30
2019-04-01T00:22:16.561Z,7.80
2019-04-01T00:24:47.071Z,6.77
2019-04-01T00:27:17.635Z,7.17
2019-04-01T00:29:48.101Z,6.90
2019-04-01T00:32:18.657Z,6.83
2019-04-01T00:34:49.236Z,7.00
2019-04-01T00:37:19.770Z,5.97
2019-04-01T00:39:50.242Z,6.10
2019-04-01T00:42:25.650Z,6.20
2019-04-01T00:44:56.100Z,5.90
2019-04-01T00:47:26.711Z,6.20
2019-04-01T00:49:58.407Z,5.77
2019-04-01T00:52:28.887Z,6.13
2019-04-01T00:54:59.467Z,6.33
2019-04-01T00:57:29.994Z,6.03
2019-04-01T01:00:00.603Z,6.67
2019-04-01T01:02:31.186Z,5.73
2019-04-01T01:05:01.810Z,6.47
2019-04-01T01:07:32.432Z,6.30
2019-04-01T01:10:02.965Z,7.33
2019-04-01T01:12:33.435Z,6.67
2019-04-01T01:15:04.156Z,6.93
2019-04-01T01:17:34.807Z,6.63
2019-04-01T01:20:06.209Z,7.23
2019-04-01T01:22:36.740Z,6.70
2019-04-01T01:25:07.325Z,7.03
2019-04-01T01:27:38.266Z,6.37
2019-04-01T01:30:09.277Z,5.90
2019-04-01T01:32:40.197Z,6.60
2019-04-01T01:35:10.783Z,6.13
2019-04-01T01:37:41.334Z,6.27
2019-04-01T01:40:12.107Z,6.00
2019-04-01T01:42:42.730Z,5.87
2019-04-01T01:45:13.194Z,6.43
2019-04-01T01:47:43.655Z,5.27
2019-04-01T01:50:14.387Z,6.20
2019-04-01T01:52:44.969Z,5.57
2019-04-01T01:55:15.482Z,5.10
2019-04-01T01:57:46.212Z,5.57
2019-04-01T02:00:17.053Z,5.93
2019-04-01T02:02:47.594Z,5.97
2019-04-01T02:05:18.253Z,5.83
2019-04-01T02:07:48.874Z,5.60
2019-04-01T02:10:19.710Z,5.27
2019-04-01T02:12:50.220Z,5.87
2019-04-01T02:15:20.875Z,5.60
2019-04-01T02:17:51.382Z,5.60
2019-04-01T02:20:21.877Z,5.60
2019-04-01T02:22:52.444Z,5.80
2019-04-01T02:25:23.279Z,5.40
2019-04-01T02:27:54.898Z,5.40
2019-04-01T02:30:25.583Z,4.80
2019-04-01T02:32:56.151Z,5.07
2019-04-01T02:35:26.898Z,4.60
2019-04-01T02:37:57.453Z,5.13
2019-04-01T02:40:28.033Z,5.50
2019-04-01T02:42:58.787Z,4.90
2019-04-01T02:45:29.661Z,5.07
2019-04-01T02:48:00.120Z,5.10
2019-04-01T02:50:30.711Z,4.93
2019-04-01T02:53:01.250Z,5.10
2019-04-01T02:55:31.776Z,5.07
2019-04-01T02:58:02.710Z,5.37
2019-04-01T03:00:33.186Z,4.67
2019-04-01T03:03:03.967Z,4.50
2019-04-01T03:05:34.441Z,5.03
2019-04-01T03:08:04.892Z,4.77
2019-04-01T03:10:35.433Z,4.83
2019-04-01T03:13:05.997Z,5.23
2019-04-01T03:15:37.046Z,5.60
2019-04-01T03:18:07.487Z,5.53
2019-04-01T03:20:38.176Z,5.43
2019-04-01T03:23:09.726Z,6.00
2019-04-01T03:25:40.407Z,5.90
2019-04-01T03:28:10.902Z,6.17
2019-04-01T03:30:41.715Z,6.17
2019-04-01T03:33:12.224Z,5.80
2019-04-01T03:35:42.721Z,6.30
2019-04-01T03:38:13.398Z,6.03
2019-04-01T03:40:43.841Z,6.00
2019-04-01T03:43:14.331Z,6.00
2019-04-01T03:45:45.161Z,6.53
2019-04-01T03:48:15.639Z,6.47
2019-04-01T03:50:46.129Z,7.00
2019-04-01T03:53:16.574Z,8.07
2019-04-01T03:55:47.095Z,8.80
2019-04-01T03:58:17.758Z,7.70
2019-04-01T04:00:49.284Z,7.33
2019-04-01T04:03:20.134Z,7.10
2019-04-01T04:05:50.623Z,6.73
2019-04-01T04:08:21.198Z,7.43
2019-04-01T04:10:51.814Z,7.47
2019-04-01T04:13:22.354Z,7.93
2019-04-01T04:15:52.987Z,7.60
2019-04-01T04:18:23.762Z,7.77
2019-04-01T04:20:54.354Z,7.40
2019-04-01T04:23:24.837Z,7.47
2019-04-01T04:25:55.537Z,7.63
2019-04-01T04:28:26.165Z,6.87
2019-04-01T04:30:56.795Z,7.77
2019-04-01T04:33:27.329Z,7.50
2019-04-01T04:35:59.037Z,7.23
2019-04-01T04:38:29.569Z,7.30
2019-04-01T04:41:03.081Z,7.03
2019-04-01T04:43:37.010Z,8.47
2019-04-01T04:46:13.918Z,7.20
2019-04-01T04:48:44.403Z,6.87
2019-04-01T04:51:14.825Z,7.60
2019-04-01T04:53:45.558Z,10.20
2019-04-01T04:56:16.109Z,9.07
2019-04-01T04:58:46.636Z,8.27
2019-04-01T05:01:17.222Z,7.27
2019-04-01T05:03:47.823Z,8.13
2019-04-01T05:06:18.639Z,7.83
2019-04-01T05:08:49.164Z,6.50
2019-04-01T05:11:19.764Z,6.40
2019-04-01T05:13:50.257Z,5.27
2019-04-01T05:16:20.863Z,6.63
2019-04-01T05:18:51.634Z,6.40
2019-04-01T05:21:22.527Z,6.37
2019-04-01T05:23:54.475Z,5.87
2019-04-01T05:26:27.052Z,5.30
2019-04-01T05:29:00.600Z,5.73
2019-04-01T05:31:34.127Z,5.70
2019-04-01T05:34:05.481Z,6.27
2019-04-01T05:36:36.188Z,5.33
2019-04-01T05:39:07.957Z,5.50
2019-04-01T05:41:38.445Z,5.17
2019-04-01T05:44:10.089Z,5.73
2019-04-01T05:46:40.614Z,6.10
2019-04-01T05:49:11.501Z,4.57
2019-04-01T05:51:41.959Z,5.53
2019-04-01T05:54:13.749Z,5.23
2019-04-01T05:56:44.250Z,5.93
2019-04-01T05:59:14.949Z,6.20
2019-04-01T06:01:47.099Z,5.93
2019-04-01T06:04:17.645Z,6.93
2019-04-01T06:06:49.017Z,5.67
2019-04-01T06:09:19.933Z,6.83
2019-04-01T06:11:50.448Z,6.10
2019-04-01T06:14:21.229Z,5.60
2019-04-01T06:16:51.711Z,5.20
2019-04-01T06:19:22.591Z,4.77
2019-04-01T06:21:53.797Z,4.47
2019-04-01T06:24:24.817Z,3.97
2019-04-01T06:26:55.546Z,4.80
2019-04-01T06:29:26.257Z,4.20
2019-04-01T06:31:56.870Z,3.87
2019-04-01T06:34:27.571Z,3.17
2019-04-01T06:36:58.130Z,4.07
2019-04-01T06:39:28.709Z,2.97
2019-04-01T06:41:59.474Z,2.50
2019-04-01T06:44:29.955Z,2.30
2019-04-01T06:47:00.587Z,2.90
2019-04-01T06:49:31.547Z,2.80
2019-04-01T06:52:02.292Z,2.67
2019-04-01T06:54:33.136Z,2.30
2019-04-01T06:57:03.613Z,2.50
2019-04-01T06:59:34.493Z,2.40
2019-04-01T07:02:05.039Z,2.90
2019-04-01T07:04:35.700Z,2.60
2019-04-01T07:07:18.219Z,2.50
2019-04-01T07:09:38.645Z,2.23
2019-04-01T07:12:09.341Z,2.23
2019-04-01T07:14:39.913Z,2.50
2019-04-01T07:17:10.683Z,3.10
2019-04-01T07:19:41.235Z,2.40
2019-04-01T07:22:13.001Z,1.87
2019-04-01T07:24:43.642Z,2.30
2019-04-01T07:27:14.219Z,1.97
2019-04-01T07:29:44.773Z,2.07
2019-04-01T07:32:15.313Z,2.00
2019-04-01T07:34:46.130Z,2.10
2019-04-01T07:37:18.177Z,2.37
2019-04-01T07:39:48.724Z,2.70
2019-04-01T07:42:20.380Z,2.33
2019-04-01T07:44:51.067Z,2.30
2019-04-01T07:47:21.926Z,2.13
2019-04-01T07:49:53.203Z,1.90
2019-04-01T07:52:23.773Z,1.90
2019-04-01T07:54:54.368Z,1.80
2019-04-01T07:57:25.343Z,2.00
2019-04-01T07:59:56.928Z,1.87
2019-04-01T08:02:27.584Z,1.97
2019-04-01T08:04:58.872Z,1.90
2019-04-01T08:07:29.354Z,2.50
2019-04-01T08:09:59.950Z,2.60
2019-04-01T08:12:30.740Z,2.90
2019-04-01T08:15:01.248Z,4.63
2019-04-01T08:17:33.053Z,2.00
2019-04-01T08:20:03.895Z,2.47
2019-04-01T08:22:34.412Z,2.30
2019-04-01T08:25:06.483Z,2.20
2019-04-01T08:27:37.484Z,2.20
2019-04-01T08:30:08.764Z,2.10
2019-04-01T08:32:39.303Z,1.90
2019-04-01T08:35:10.234Z,2.40
2019-04-01T08:37:40.906Z,2.17
2019-04-01T08:40:11.875Z,1.70
2019-04-01T08:42:42.683Z,1.90
2019-04-01T08:45:13.251Z,2.50
2019-04-01T08:47:44.019Z,2.20
2019-04-01T08:50:14.662Z,1.90
2019-04-01T08:52:46.273Z,2.23
2019-04-01T08:55:16.809Z,2.30
2019-04-01T08:57:47.361Z,2.20
2019-04-01T09:00:18.279Z,1.80
2019-04-01T09:02:48.883Z,2.17
2019-04-01T09:05:19.439Z,2.00
2019-04-01T09:07:50.472Z,2.10
2019-04-01T09:10:21.259Z,2.20
2019-04-01T09:12:52.679Z,2.20
2019-04-01T09:15:23.355Z,1.60
2019-04-01T09:17:54.448Z,2.10
2019-04-01T09:23:52.482Z,1.87
2019-04-01T09:26:22.976Z,1.70
2019-04-01T09:28:54.784Z,2.00
2019-04-01T09:31:25.336Z,1.90
2019-04-01T09:33:55.867Z,2.30
2019-04-01T09:36:26.423Z,2.37
2019-04-01T09:38:58.128Z,1.33
2019-04-01T09:41:28.687Z,1.27
2019-04-01T09:43:59.649Z,1.30
2019-04-01T09:46:30.114Z,1.60
2019-04-01T09:49:00.582Z,1.20
2019-04-01T09:51:31.110Z,1.70
2019-04-01T09:54:01.618Z,1.60
2019-04-01T09:56:32.138Z,1.20
2019-04-01T09:59:08.202Z,1.20
2019-04-01T10:01:43.699Z,1.20
2019-04-01T10:04:21.431Z,1.30
2019-04-01T10:06:54.825Z,1.17
2019-04-01T10:09:27.450Z,1.23
2019-04-01T10:12:00.546Z,1.43
2019-04-01T10:14:31.946Z,1.10
2019-04-01T10:17:02.669Z,1.10
2019-04-01T10:19:33.481Z,1.00
2019-04-01T10:22:03.984Z,1.40
2019-04-01T10:24:40.336Z,1.00
2019-04-01T10:27:11.015Z,0.70
2019-04-01T10:29:42.441Z,1.37
2019-04-01T10:32:13.341Z,0.80
2019-04-01T10:34:43.949Z,1.10
2019-04-01T10:37:14.547Z,1.23
2019-04-01T10:39:45.128Z,1.20
2019-04-01T10:42:15.854Z,1.03
2019-04-01T10:44:46.449Z,1.50
2019-04-01T10:47:20.339Z,1.17
2019-04-01T10:49:51.075Z,0.90
2019-04-01T10:52:21.827Z,1.03
2019-04-01T10:54:52.375Z,1.07
2019-04-01T10:57:23.021Z,1.30
2019-04-01T10:59:53.643Z,1.50
2019-04-01T11:02:24.464Z,1.30
2019-04-01T11:04:55.304Z,1.07
2019-04-01T11:07:25.912Z,1.20
2019-04-01T11:09:56.756Z,1.40
2019-04-01T11:12:29.300Z,1.10
2019-04-01T11:14:59.932Z,0.93
2019-04-01T11:17:30.539Z,1.03
2019-04-01T11:20:01.166Z,1.03
2019-04-01T11:22:31.971Z,1.17
2019-04-01T11:25:04.031Z,1.10
2019-04-01T11:27:34.595Z,1.30
2019-04-01T11:30:07.778Z,1.17
2019-04-01T11:32:40.328Z,1.10
2019-04-01T11:35:11.262Z,1.37
2019-04-01T11:37:42.001Z,1.40
2019-04-01T11:40:12.917Z,1.40
2019-04-01T11:42:43.665Z,0.90
2019-04-01T11:45:14.242Z,1.10
2019-04-01T11:47:44.825Z,0.90
2019-04-01T11:50:15.868Z,1.13
2019-04-01T11:52:46.350Z,0.90
2019-04-01T11:55:16.926Z,1.60
2019-04-01T11:57:47.422Z,1.20
2019-04-01T12:00:19.411Z,0.97
2019-04-01T12:02:49.919Z,1.10
2019-04-01T12:05:21.762Z,1.47
2019-04-01T12:07:55.306Z,1.50
2019-04-01T12:10:25.884Z,1.00
2019-04-01T12:12:56.577Z,0.90
2019-04-01T12:15:27.497Z,1.30
2019-04-01T12:17:58.987Z,1.10
2019-04-01T12:20:29.513Z,1.00
2019-04-01T12:22:59.967Z,1.10
2019-04-01T12:25:30.512Z,1.43
2019-04-01T12:28:01.395Z,1.20
2019-04-01T12:30:31.846Z,1.13
2019-04-01T12:33:02.805Z,1.10
2019-04-01T12:35:33.234Z,1.20
2019-04-01T12:38:04.216Z,1.53
2019-04-01T12:40:34.800Z,1.00
2019-04-01T12:43:05.602Z,1.00
2019-04-01T12:45:36.512Z,1.67
2019-04-01T12:48:13.760Z,1.70
2019-04-01T12:50:44.471Z,1.30
2019-04-01T12:53:14.932Z,1.67
2019-04-01T12:55:45.461Z,0.90
2019-04-01T12:58:17.825Z,1.53
2019-04-01T13:00:48.406Z,1.07
2019-04-01T13:03:18.970Z,1.03
2019-04-01T13:05:49.523Z,1.10
2019-04-01T13:08:19.976Z,1.10
2019-04-01T13:10:50.536Z,1.20
2019-04-01T13:13:22.823Z,1.40
2019-04-01T13:15:53.521Z,1.22
2019-04-01T13:18:24.088Z,1.30
2019-04-01T13:20:54.847Z,1.50
2019-04-01T13:23:25.357Z,1.50
2019-04-01T13:25:56.045Z,1.70
2019-04-01T13:28:26.483Z,1.10
2019-04-01T13:30:56.937Z,1.00
2019-04-01T13:33:27.545Z,0.90
2019-04-01T13:35:58.034Z,2.00
2019-04-01T13:38:28.627Z,1.50
2019-04-01T13:40:59.489Z,1.45
2019-04-01T13:43:30.049Z,1.25
2019-04-01T13:46:00.839Z,1.12
2019-04-01T13:48:31.309Z,1.15
2019-04-01T13:51:01.778Z,1.37
2019-04-01T13:53:32.318Z,1.30
2019-04-01T13:56:03.776Z,1.10
2019-04-01T13:58:34.464Z,0.80
2019-04-01T14:01:04.912Z,1.15
2019-04-01T14:03:35.434Z,1.00
2019-04-01T14:06:06.224Z,0.90
2019-04-01T14:08:36.924Z,1.32
2019-04-01T14:11:07.420Z,1.20
2019-04-01T14:13:37.870Z,1.15
2019-04-01T14:16:09.231Z,1.17
2019-04-01T14:18:40.282Z,1.20
2019-04-01T14:21:17.430Z,1.10
2019-04-01T14:23:43.254Z,1.00
2019-04-01T14:26:13.834Z,1.00
2019-04-01T14:28:44.461Z,1.12
2019-04-01T14:31:15.174Z,0.90
2019-04-01T14:33:45.723Z,1.25
2019-04-01T14:36:16.381Z,1.32
2019-04-01T14:38:46.947Z,1.00
2019-04-01T14:41:17.783Z,1.80
2019-04-01T14:43:48.663Z,1.70
2019-04-01T14:46:19.173Z,1.90
2019-04-01T14:48:49.648Z,1.20
2019-04-01T14:51:20.522Z,0.90
2019-04-01T14:53:51.125Z,2.00
2019-04-01T14:56:21.847Z,1.10
2019-04-01T14:58:53.019Z,1.27
2019-04-01T15:01:24.002Z,1.47
2019-04-01T15:03:54.363Z,1.43
2019-04-01T15:06:26.433Z,1.60
2019-04-01T15:08:57.315Z,1.20
2019-04-01T15:11:28.136Z,1.50
2019-04-01T15:14:00.187Z,1.20
2019-04-01T15:16:30.832Z,1.27
2019-04-01T15:19:08.264Z,1.40
2019-04-01T15:21:39.102Z,1.20
2019-04-01T15:24:09.793Z,1.30
2019-04-01T15:26:41.496Z,1.70
2019-04-01T15:29:12.098Z,1.20
2019-04-01T15:31:42.964Z,1.23
2019-04-01T15:34:13.366Z,1.63
2019-04-01T15:36:44.150Z,1.23
2019-04-01T15:39:15.431Z,1.20
2019-04-01T15:41:46.057Z,1.33
2019-04-01T15:44:16.496Z,1.10
2019-04-01T15:46:47.195Z,1.37
2019-04-01T15:49:17.943Z,1.13
2019-04-01T15:51:48.802Z,1.17
2019-04-01T15:54:19.889Z,1.60
2019-04-01T15:56:50.342Z,1.03
2019-04-01T15:59:21.213Z,1.13
2019-04-01T16:01:51.886Z,1.20
2019-04-01T16:04:22.400Z,1.70
2019-04-01T16:06:52.783Z,1.27
2019-04-01T16:09:23.358Z,1.43
2019-04-01T16:11:54.341Z,1.23
2019-04-01T16:14:26.267Z,1.50
2019-04-01T16:16:56.863Z,1.60
2019-04-01T16:19:29.052Z,1.40
2019-04-01T16:21:59.872Z,1.40
2019-04-01T16:24:30.590Z,1.60
2019-04-01T16:27:01.517Z,1.57
2019-04-01T16:29:32.272Z,1.40
2019-04-01T16:32:02.877Z,1.27
2019-04-01T16:34:34.847Z,1.27
2019-04-01T16:37:05.878Z,1.62
2019-04-01T16:39:36.892Z,1.50
2019-04-01T16:42:07.496Z,1.50
2019-04-01T16:44:38.276Z,1.60
2019-04-01T16:47:10.115Z,2.07
2019-04-01T16:49:41.212Z,1.77
2019-04-01T16:52:15.273Z,2.17
2019-04-01T16:54:56.878Z,1.90
2019-04-01T16:57:27.802Z,2.50
2019-04-01T16:59:58.360Z,2.90
2019-04-01T17:02:32.788Z,2.77
2019-04-01T17:05:02.104Z,3.03
2019-04-01T17:07:32.746Z,3.00
2019-04-01T17:10:04.282Z,3.10
2019-04-01T17:12:35.352Z,3.30
2019-04-01T17:15:06.482Z,3.33
2019-04-01T17:17:37.021Z,3.73
2019-04-01T17:20:08.493Z,4.10
2019-04-01T17:22:38.996Z,3.63
2019-04-01T17:25:09.764Z,4.47
2019-04-01T17:27:40.257Z,4.07
2019-04-01T17:30:11.779Z,4.70
2019-04-01T17:32:42.482Z,5.70
2019-04-01T17:35:13.583Z,5.10
2019-04-01T17:37:44.768Z,6.20
2019-04-01T17:40:17.260Z,7.37
2019-04-01T17:42:47.882Z,7.50
2019-04-01T17:45:37.002Z,8.27
2019-04-01T17:48:08.042Z,8.00
2019-04-01T17:50:39.007Z,8.63
2019-04-01T17:53:11.061Z,12.27
2019-04-01T17:55:45.187Z,9.53
2019-04-01T17:58:15.529Z,8.87
2019-04-01T18:00:51.849Z,8.20
2019-04-01T18:03:22.580Z,9.10
2019-04-01T18:05:53.594Z,11.67
2019-04-01T18:08:24.073Z,10.33
2019-04-01T18:10:57.145Z,9.63
2019-04-01T18:13:29.146Z,10.73
2019-04-01T18:16:00.034Z,10.83
2019-04-01T18:18:33.892Z,10.43
2019-04-01T18:21:03.440Z,11.83
2019-04-01T18:23:35.467Z,11.73
2019-04-01T18:26:06.853Z,12.07
2019-04-01T18:28:37.568Z,11.70
2019-04-01T18:31:08.439Z,11.47
2019-04-01T18:33:39.226Z,13.30
2019-04-01T18:36:10.193Z,12.80
2019-04-01T18:38:41.184Z,13.53
2019-04-01T18:41:11.856Z,13.63
2019-04-01T18:43:42.683Z,14.17
2019-04-01T18:46:13.469Z,14.73
2019-04-01T18:48:43.960Z,15.47
2019-04-01T18:51:14.710Z,15.93
2019-04-01T18:53:45.839Z,16.77
2019-04-01T18:56:16.576Z,18.53
2019-04-01T18:58:47.682Z,18.03
2019-04-01T19:01:18.676Z,18.77
2019-04-01T19:03:49.728Z,21.47
2019-04-01T19:06:20.668Z,21.33
2019-04-01T19:08:51.362Z,23.03
2019-04-01T19:11:22.345Z,24.23
2019-04-01T19:13:53.683Z,24.83
2019-04-01T19:16:24.680Z,23.73
2019-04-01T19:18:56.032Z,26.37
2019-04-01T19:21:26.812Z,28.23
2019-04-01T19:23:57.501Z,28.70
2019-04-01T19:26:28.656Z,31.70
2019-04-01T19:28:59.545Z,30.20
2019-04-01T19:31:30.307Z,31.33
2019-04-01T19:34:00.914Z,32.10
2019-04-01T19:36:32.104Z,33.27
2019-04-01T19:39:03.400Z,34.07
2019-04-01T19:41:35.571Z,34.50
2019-04-01T19:44:06.502Z,34.10
2019-04-01T19:46:38.158Z,37.83
2019-04-01T19:49:09.167Z,37.03
2019-04-01T19:51:40.391Z,37.50
2019-04-01T19:54:33.572Z,37.50
2019-04-01T19:57:02.954Z,38.23
2019-04-01T19:59:35.757Z,37.60
2019-04-01T20:02:09.287Z,40.37
2019-04-01T20:04:38.426Z,39.20
2019-04-01T20:07:09.213Z,38.77
2019-04-01T20:09:40.029Z,39.50
2019-04-01T20:12:12.015Z,40.97
2019-04-01T20:14:43.057Z,40.00
2019-04-01T20:17:13.754Z,37.10
2019-04-01T20:19:44.724Z,41.13
2019-04-01T20:22:15.544Z,39.60
2019-04-01T20:24:47.911Z,41.27
2019-04-01T20:27:20.747Z,40.00
2019-04-01T20:29:51.646Z,39.47
2019-04-01T20:32:22.216Z,39.83
2019-04-01T20:34:57.142Z,40.67
2019-04-01T20:37:25.307Z,41.57
2019-04-01T20:39:56.250Z,42.37
2019-04-01T20:42:27.108Z,43.27
2019-04-01T20:44:57.609Z,44.50
2019-04-01T20:47:28.515Z,45.53
2019-04-01T20:49:59.551Z,46.87
2019-04-01T20:52:30.901Z,45.60
2019-04-01T20:55:01.796Z,47.80
2019-04-01T20:57:33.291Z,48.23
2019-04-01T21:00:05.565Z,48.23
2019-04-01T21:02:37.026Z,50.70
2019-04-01T21:05:09.427Z,51.10
2019-04-01T21:07:40.441Z,50.80
2019-04-01T21:10:11.495Z,50.30
2019-04-01T21:12:43.077Z,52.50
2019-04-01T21:15:14.165Z,53.50
2019-04-01T21:17:45.011Z,53.93
2019-04-01T21:20:16.045Z,55.40
2019-04-01T21:22:46.701Z,52.93
2019-04-01T21:25:17.657Z,53.23
2019-04-01T21:27:48.278Z,53.57
2019-04-01T21:30:20.149Z,50.57
2019-04-01T21:32:51.311Z,47.30
2019-04-01T21:35:22.209Z,46.50
2019-04-01T21:37:52.961Z,43.63
2019-04-01T21:40:23.738Z,44.50
2019-04-01T21:42:54.434Z,42.07
2019-04-01T21:45:25.465Z,41.47
2019-04-01T21:47:57.580Z,40.93
2019-04-01T21:50:29.687Z,40.87
2019-04-01T21:53:02.172Z,38.63
2019-04-01T21:55:33.802Z,37.47
2019-04-01T21:58:04.813Z,38.33
2019-04-01T22:00:46.050Z,36.73
2019-04-01T22:03:18.065Z,34.03
2019-04-01T22:05:48.688Z,34.47
2019-04-01T22:08:19.283Z,33.83
2019-04-01T22:10:49.742Z,33.57
2019-04-01T22:13:20.662Z,32.90
2019-04-01T22:15:51.828Z,32.43
2019-04-01T22:18:22.673Z,31.93
2019-04-01T22:20:53.957Z,32.73
2019-04-01T22:23:24.557Z,31.73
2019-04-01T22:25:55.167Z,31.87
2019-04-01T22:28:25.889Z,31.80
2019-04-01T22:30:56.377Z,29.60
2019-04-01T22:33:28.420Z,27.77
2019-04-01T22:35:59.117Z,28.13
2019-04-01T22:38:30.119Z,25.37
2019-04-01T22:41:01.223Z,24.57
2019-04-01T22:43:32.042Z,25.03
2019-04-01T22:46:02.926Z,24.50
2019-04-01T22:48:34.455Z,24.00
2019-04-01T22:51:05.477Z,22.77
2019-04-01T22:53:36.100Z,22.93
2019-04-01T22:56:06.821Z,21.20
2019-04-01T22:58:37.758Z,21.40
2019-04-01T23:01:08.240Z,21.00
2019-04-01T23:03:39.237Z,19.63
2019-04-01T23:06:11.079Z,19.37
2019-04-01T23:08:41.610Z,18.07
2019-04-01T23:11:12.686Z,16.63
2019-04-01T23:13:43.680Z,15.87
2019-04-01T23:16:14.224Z,14.60
2019-04-01T23:18:45.732Z,14.67
2019-04-01T23:21:16.472Z,12.63
2019-04-01T23:23:47.834Z,12.03
2019-04-01T23:26:18.730Z,10.77
2019-04-01T23:28:50.479Z,11.13
2019-04-01T23:31:21.358Z,10.67
2019-04-01T23:33:52.176Z,9.80
2019-04-01T23:36:22.868Z,10.00
2019-04-01T23:38:53.534Z,9.87
2019-04-01T23:41:24.096Z,9.33
2019-04-01T23:43:55.492Z,10.63
2019-04-01T23:46:27.111Z,9.47
2019-04-01T23:48:57.937Z,9.87
2019-04-01T23:51:28.481Z,9.10
2019-04-01T23:53:59.073Z,8.57
2019-04-01T23:56:29.887Z,8.47
2019-04-01T23:59:01.951Z,8.33
